sensor_id;sensor_type;location;lat;lon;timestamp;pressure;altitude;pressure_sealevel;temperature
37536;BMP180;23379;51.554;6.736;2023-08-21T00:00:35;101766.00;;;20.40
37536;BMP180;23379;51.554;6.736;2023-08-21T00:03:01;101759.00;;;20.40
37536;BMP180;23379;51.554;6.736;2023-08-21T00:05:26;101772.00;;;20.50
37536;BMP180;23379;51.554;6.736;2023-08-21T00:07:51;101750.00;;;20.60
37536;BMP180;23379;51.554;6.736;2023-08-21T00:10:17;101762.00;;;20.40
37536;BMP180;23379;51.554;6.736;2023-08-21T00:12:42;101766.00;;;20.30
37536;BMP180;23379;51.554;6.736;2023-08-21T00:15:08;101771.00;;;20.40
37536;BMP180;23379;51.554;6.736;2023-08-21T00:17:35;101762.00;;;20.40
37536;BMP180;23379;51.554;6.736;2023-08-21T00:20:00;101773.00;;;20.50
37536;BMP180;23379;51.554;6.736;2023-08-21T00:22:26;101768.00;;;20.50
37536;BMP180;23379;51.554;6.736;2023-08-21T00:24:52;101770.00;;;20.40
37536;BMP180;23379;51.554;6.736;2023-08-21T00:27:17;101749.00;;;20.20
37536;BMP180;23379;51.554;6.736;2023-08-21T00:29:42;101773.00;;;20.40
37536;BMP180;23379;51.554;6.736;2023-08-21T00:32:08;101772.00;;;20.50
37536;BMP180;23379;51.554;6.736;2023-08-21T00:34:34;101761.00;;;20.50
37536;BMP180;23379;51.554;6.736;2023-08-21T00:36:59;101774.00;;;20.40
37536;BMP180;23379;51.554;6.736;2023-08-21T00:39:25;101747.00;;;20.30
37536;BMP180;23379;51.554;6.736;2023-08-21T00:41:50;101743.00;;;19.80
37536;BMP180;23379;51.554;6.736;2023-08-21T00:44:15;101759.00;;;19.60
37536;BMP180;23379;51.554;6.736;2023-08-21T00:46:40;101742.00;;;19.70
37536;BMP180;23379;51.554;6.736;2023-08-21T00:49:06;101753.00;;;19.80
37536;BMP180;23379;51.554;6.736;2023-08-21T00:51:31;101756.00;;;20.10
37536;BMP180;23379;51.554;6.736;2023-08-21T00:53:57;101748.00;;;20.20
37536;BMP180;23379;51.554;6.736;2023-08-21T00:56:23;101750.00;;;20.30
37536;BMP180;23379;51.554;6.736;2023-08-21T00:58:49;101751.00;;;20.40
37536;BMP180;23379;51.554;6.736;2023-08-21T01:01:15;101757.00;;;20.10
37536;BMP180;23379;51.554;6.736;2023-08-21T01:03:42;101752.00;;;20.20
37536;BMP180;23379;51.554;6.736;2023-08-21T01:06:08;101752.00;;;20.30
37536;BMP180;23379;51.554;6.736;2023-08-21T01:08:55;101751.00;;;20.40
37536;BMP180;23379;51.554;6.736;2023-08-21T01:14:16;101757.00;;;19.90
37536;BMP180;23379;51.554;6.736;2023-08-21T01:16:43;101749.00;;;19.90
37536;BMP180;23379;51.554;6.736;2023-08-21T01:19:16;101744.00;;;20.30
37536;BMP180;23379;51.554;6.736;2023-08-21T01:21:44;101753.00;;;20.50
37536;BMP180;23379;51.554;6.736;2023-08-21T01:24:10;101746.00;;;20.70
37536;BMP180;23379;51.554;6.736;2023-08-21T01:26:35;101753.00;;;20.70
37536;BMP180;23379;51.554;6.736;2023-08-21T01:29:00;101740.00;;;20.50
37536;BMP180;23379;51.554;6.736;2023-08-21T01:31:34;101744.00;;;20.40
37536;BMP180;23379;51.554;6.736;2023-08-21T01:34:04;101742.00;;;20.30
37536;BMP180;23379;51.554;6.736;2023-08-21T01:36:31;101764.00;;;20.10
37536;BMP180;23379;51.554;6.736;2023-08-21T01:38:57;101756.00;;;20.30
37536;BMP180;23379;51.554;6.736;2023-08-21T01:41:23;101758.00;;;20.40
37536;BMP180;23379;51.554;6.736;2023-08-21T01:43:49;101749.00;;;20.20
37536;BMP180;23379;51.554;6.736;2023-08-21T01:46:15;101759.00;;;20.10
37536;BMP180;23379;51.554;6.736;2023-08-21T01:48:40;101763.00;;;20.10
37536;BMP180;23379;51.554;6.736;2023-08-21T01:51:06;101760.00;;;20.20
37536;BMP180;23379;51.554;6.736;2023-08-21T01:53:31;101761.00;;;20.10
37536;BMP180;23379;51.554;6.736;2023-08-21T01:55:56;101750.00;;;20.00
37536;BMP180;23379;51.554;6.736;2023-08-21T01:58:22;101746.00;;;20.00
37536;BMP180;23379;51.554;6.736;2023-08-21T02:00:47;101741.00;;;19.50
37536;BMP180;23379;51.554;6.736;2023-08-21T02:03:13;101740.00;;;19.60
37536;BMP180;23379;51.554;6.736;2023-08-21T02:05:39;101738.00;;;19.40
37536;BMP180;23379;51.554;6.736;2023-08-21T02:08:06;101740.00;;;19.70
37536;BMP180;23379;51.554;6.736;2023-08-21T02:10:32;101748.00;;;20.10
37536;BMP180;23379;51.554;6.736;2023-08-21T02:12:58;101734.00;;;20.20
37536;BMP180;23379;51.554;6.736;2023-08-21T02:15:23;101739.00;;;20.30
37536;BMP180;23379;51.554;6.736;2023-08-21T02:17:48;101742.00;;;19.50
37536;BMP180;23379;51.554;6.736;2023-08-21T02:20:14;101751.00;;;19.70
37536;BMP180;23379;51.554;6.736;2023-08-21T02:22:39;101726.00;;;19.50
37536;BMP180;23379;51.554;6.736;2023-08-21T02:25:05;101739.00;;;19.90
37536;BMP180;23379;51.554;6.736;2023-08-21T02:27:30;101743.00;;;20.00
37536;BMP180;23379;51.554;6.736;2023-08-21T02:29:55;101750.00;;;20.10
37536;BMP180;23379;51.554;6.736;2023-08-21T02:32:21;101750.00;;;20.30
37536;BMP180;23379;51.554;6.736;2023-08-21T02:34:46;101743.00;;;20.40
37536;BMP180;23379;51.554;6.736;2023-08-21T02:37:12;101741.00;;;19.90
37536;BMP180;23379;51.554;6.736;2023-08-21T02:39:37;101715.00;;;19.60
37536;BMP180;23379;51.554;6.736;2023-08-21T02:42:03;101735.00;;;19.70
37536;BMP180;23379;51.554;6.736;2023-08-21T02:44:28;101747.00;;;19.90
37536;BMP180;23379;51.554;6.736;2023-08-21T02:46:54;101732.00;;;19.90
37536;BMP180;23379;51.554;6.736;2023-08-21T02:49:19;101740.00;;;19.50
37536;BMP180;23379;51.554;6.736;2023-08-21T02:51:44;101726.00;;;19.60
37536;BMP180;23379;51.554;6.736;2023-08-21T02:54:10;101743.00;;;19.60
37536;BMP180;23379;51.554;6.736;2023-08-21T02:56:36;101740.00;;;19.60
37536;BMP180;23379;51.554;6.736;2023-08-21T02:59:01;101722.00;;;19.50
37536;BMP180;23379;51.554;6.736;2023-08-21T03:01:27;101745.00;;;19.70
37536;BMP180;23379;51.554;6.736;2023-08-21T03:03:52;101742.00;;;19.70
37536;BMP180;23379;51.554;6.736;2023-08-21T03:06:18;101748.00;;;19.90
37536;BMP180;23379;51.554;6.736;2023-08-21T03:08:43;101742.00;;;20.00
37536;BMP180;23379;51.554;6.736;2023-08-21T03:11:09;101747.00;;;20.10
37536;BMP180;23379;51.554;6.736;2023-08-21T03:13:34;101738.00;;;19.90
37536;BMP180;23379;51.554;6.736;2023-08-21T03:16:00;101748.00;;;19.90
37536;BMP180;23379;51.554;6.736;2023-08-21T03:18:31;101753.00;;;20.10
37536;BMP180;23379;51.554;6.736;2023-08-21T03:20:57;101729.00;;;19.80
37536;BMP180;23379;51.554;6.736;2023-08-21T03:23:22;101741.00;;;19.50
37536;BMP180;23379;51.554;6.736;2023-08-21T03:25:47;101740.00;;;19.70
37536;BMP180;23379;51.554;6.736;2023-08-21T03:28:13;101738.00;;;19.70
37536;BMP180;23379;51.554;6.736;2023-08-21T03:30:41;101711.00;;;19.50
37536;BMP180;23379;51.554;6.736;2023-08-21T03:33:07;101731.00;;;19.70
37536;BMP180;23379;51.554;6.736;2023-08-21T03:35:33;101724.00;;;19.40
37536;BMP180;23379;51.554;6.736;2023-08-21T03:37:58;101723.00;;;19.60
37536;BMP180;23379;51.554;6.736;2023-08-21T03:40:24;101723.00;;;19.40
37536;BMP180;23379;51.554;6.736;2023-08-21T03:42:49;101724.00;;;19.70
37536;BMP180;23379;51.554;6.736;2023-08-21T03:45:14;101709.00;;;19.50
37536;BMP180;23379;51.554;6.736;2023-08-21T03:47:40;101729.00;;;19.50
37536;BMP180;23379;51.554;6.736;2023-08-21T03:50:05;101733.00;;;19.20
37536;BMP180;23379;51.554;6.736;2023-08-21T03:52:31;101736.00;;;19.60
37536;BMP180;23379;51.554;6.736;2023-08-21T03:54:56;101738.00;;;19.60
37536;BMP180;23379;51.554;6.736;2023-08-21T03:57:21;101729.00;;;19.80
37536;BMP180;23379;51.554;6.736;2023-08-21T03:59:47;101736.00;;;19.70
37536;BMP180;23379;51.554;6.736;2023-08-21T04:02:12;101735.00;;;19.60
37536;BMP180;23379;51.554;6.736;2023-08-21T04:04:38;101741.00;;;19.10
37536;BMP180;23379;51.554;6.736;2023-08-21T04:07:03;101751.00;;;19.00
37536;BMP180;23379;51.554;6.736;2023-08-21T04:09:28;101738.00;;;19.60
37536;BMP180;23379;51.554;6.736;2023-08-21T04:11:54;101752.00;;;19.80
37536;BMP180;23379;51.554;6.736;2023-08-21T04:14:19;101756.00;;;20.00
37536;BMP180;23379;51.554;6.736;2023-08-21T04:16:44;101755.00;;;19.90
37536;BMP180;23379;51.554;6.736;2023-08-21T04:19:09;101743.00;;;19.70
37536;BMP180;23379;51.554;6.736;2023-08-21T04:21:35;101749.00;;;19.80
37536;BMP180;23379;51.554;6.736;2023-08-21T04:24:00;101742.00;;;19.80
37536;BMP180;23379;51.554;6.736;2023-08-21T04:26:26;101757.00;;;19.60
37536;BMP180;23379;51.554;6.736;2023-08-21T04:28:51;101746.00;;;19.80
37536;BMP180;23379;51.554;6.736;2023-08-21T04:31:16;101752.00;;;19.90
37536;BMP180;23379;51.554;6.736;2023-08-21T04:33:42;101751.00;;;19.70
37536;BMP180;23379;51.554;6.736;2023-08-21T04:36:07;101753.00;;;19.60
37536;BMP180;23379;51.554;6.736;2023-08-21T04:38:32;101730.00;;;19.70
37536;BMP180;23379;51.554;6.736;2023-08-21T04:41:08;101752.00;;;19.70
37536;BMP180;23379;51.554;6.736;2023-08-21T04:43:34;101754.00;;;19.60
37536;BMP180;23379;51.554;6.736;2023-08-21T04:46:00;101742.00;;;19.40
37536;BMP180;23379;51.554;6.736;2023-08-21T04:48:25;101730.00;;;19.20
37536;BMP180;23379;51.554;6.736;2023-08-21T04:50:50;101737.00;;;18.90
37536;BMP180;23379;51.554;6.736;2023-08-21T04:53:16;101743.00;;;19.10
37536;BMP180;23379;51.554;6.736;2023-08-21T04:55:41;101746.00;;;19.60
37536;BMP180;23379;51.554;6.736;2023-08-21T04:58:07;101764.00;;;19.70
37536;BMP180;23379;51.554;6.736;2023-08-21T05:00:33;101751.00;;;19.80
37536;BMP180;23379;51.554;6.736;2023-08-21T05:02:58;101753.00;;;19.90
37536;BMP180;23379;51.554;6.736;2023-08-21T05:05:24;101762.00;;;19.90
37536;BMP180;23379;51.554;6.736;2023-08-21T05:07:49;101748.00;;;20.00
37536;BMP180;23379;51.554;6.736;2023-08-21T05:10:15;101753.00;;;19.90
37536;BMP180;23379;51.554;6.736;2023-08-21T05:12:40;101741.00;;;19.80
37536;BMP180;23379;51.554;6.736;2023-08-21T05:15:06;101748.00;;;19.80
37536;BMP180;23379;51.554;6.736;2023-08-21T05:17:32;101752.00;;;19.90
37536;BMP180;23379;51.554;6.736;2023-08-21T05:19:57;101742.00;;;19.60
37536;BMP180;23379;51.554;6.736;2023-08-21T05:22:22;101759.00;;;19.50
37536;BMP180;23379;51.554;6.736;2023-08-21T05:24:48;101761.00;;;19.50
37536;BMP180;23379;51.554;6.736;2023-08-21T05:27:21;101771.00;;;19.70
37536;BMP180;23379;51.554;6.736;2023-08-21T05:30:33;101716.00;;;20.10
37536;BMP180;23379;51.554;6.736;2023-08-21T05:33:28;101769.00;;;20.00
37536;BMP180;23379;51.554;6.736;2023-08-21T05:36:05;101697.00;;;20.00
37536;BMP180;23379;51.554;6.736;2023-08-21T05:38:31;101768.00;;;20.20
37536;BMP180;23379;51.554;6.736;2023-08-21T05:40:57;101765.00;;;19.90
37536;BMP180;23379;51.554;6.736;2023-08-21T05:43:23;101762.00;;;20.10
37536;BMP180;23379;51.554;6.736;2023-08-21T05:45:48;101758.00;;;19.90
37536;BMP180;23379;51.554;6.736;2023-08-21T05:48:14;101764.00;;;20.00
37536;BMP180;23379;51.554;6.736;2023-08-21T05:50:39;101756.00;;;20.50
37536;BMP180;23379;51.554;6.736;2023-08-21T05:53:05;101788.00;;;20.70
37536;BMP180;23379;51.554;6.736;2023-08-21T05:55:31;101791.00;;;20.90
37536;BMP180;23379;51.554;6.736;2023-08-21T05:57:57;101776.00;;;20.70
37536;BMP180;23379;51.554;6.736;2023-08-21T06:00:22;101782.00;;;20.60
37536;BMP180;23379;51.554;6.736;2023-08-21T06:02:48;101782.00;;;20.50
37536;BMP180;23379;51.554;6.736;2023-08-21T06:05:13;101782.00;;;20.50
37536;BMP180;23379;51.554;6.736;2023-08-21T06:07:39;101778.00;;;20.60
37536;BMP180;23379;51.554;6.736;2023-08-21T06:10:08;101779.00;;;20.90
37536;BMP180;23379;51.554;6.736;2023-08-21T06:12:37;101789.00;;;21.00
37536;BMP180;23379;51.554;6.736;2023-08-21T06:15:02;101785.00;;;21.10
37536;BMP180;23379;51.554;6.736;2023-08-21T06:17:27;101791.00;;;21.00
37536;BMP180;23379;51.554;6.736;2023-08-21T06:19:53;101782.00;;;20.50
37536;BMP180;23379;51.554;6.736;2023-08-21T06:22:18;101793.00;;;20.90
37536;BMP180;23379;51.554;6.736;2023-08-21T06:24:44;101782.00;;;21.00
37536;BMP180;23379;51.554;6.736;2023-08-21T06:27:09;101773.00;;;21.10
37536;BMP180;23379;51.554;6.736;2023-08-21T06:29:35;101772.00;;;21.70
37536;BMP180;23379;51.554;6.736;2023-08-21T06:32:00;101794.00;;;22.10
37536;BMP180;23379;51.554;6.736;2023-08-21T06:34:26;101793.00;;;21.70
37536;BMP180;23379;51.554;6.736;2023-08-21T06:36:51;101795.00;;;21.60
37536;BMP180;23379;51.554;6.736;2023-08-21T06:39:16;101784.00;;;22.10
37536;BMP180;23379;51.554;6.736;2023-08-21T06:41:41;101793.00;;;22.00
37536;BMP180;23379;51.554;6.736;2023-08-21T06:44:07;101798.00;;;22.10
37536;BMP180;23379;51.554;6.736;2023-08-21T06:46:32;101803.00;;;22.70
37536;BMP180;23379;51.554;6.736;2023-08-21T06:48:58;101801.00;;;22.40
37536;BMP180;23379;51.554;6.736;2023-08-21T06:51:23;101793.00;;;22.40
37536;BMP180;23379;51.554;6.736;2023-08-21T06:53:48;101803.00;;;22.70
37536;BMP180;23379;51.554;6.736;2023-08-21T06:56:15;101793.00;;;23.10
37536;BMP180;23379;51.554;6.736;2023-08-21T06:58:40;101801.00;;;23.10
37536;BMP180;23379;51.554;6.736;2023-08-21T07:01:05;101803.00;;;23.10
37536;BMP180;23379;51.554;6.736;2023-08-21T07:03:31;101814.00;;;23.10
37536;BMP180;23379;51.554;6.736;2023-08-21T07:05:57;101812.00;;;23.20
37536;BMP180;23379;51.554;6.736;2023-08-21T07:08:23;101829.00;;;23.40
37536;BMP180;23379;51.554;6.736;2023-08-21T07:10:49;101802.00;;;23.20
37536;BMP180;23379;51.554;6.736;2023-08-21T07:13:14;101834.00;;;23.20
37536;BMP180;23379;51.554;6.736;2023-08-21T07:15:40;101827.00;;;23.20
37536;BMP180;23379;51.554;6.736;2023-08-21T07:18:05;101826.00;;;23.10
37536;BMP180;23379;51.554;6.736;2023-08-21T07:20:30;101825.00;;;23.30
37536;BMP180;23379;51.554;6.736;2023-08-21T07:22:56;101811.00;;;23.30
37536;BMP180;23379;51.554;6.736;2023-08-21T07:25:21;101814.00;;;23.40
37536;BMP180;23379;51.554;6.736;2023-08-21T07:27:47;101824.00;;;23.40
37536;BMP180;23379;51.554;6.736;2023-08-21T07:30:12;101823.00;;;23.90
37536;BMP180;23379;51.554;6.736;2023-08-21T07:32:38;101825.00;;;24.10
37536;BMP180;23379;51.554;6.736;2023-08-21T07:35:06;101835.00;;;24.70
37536;BMP180;23379;51.554;6.736;2023-08-21T07:37:31;101834.00;;;24.30
37536;BMP180;23379;51.554;6.736;2023-08-21T07:39:56;101841.00;;;24.70
37536;BMP180;23379;51.554;6.736;2023-08-21T07:42:23;101842.00;;;24.90
37536;BMP180;23379;51.554;6.736;2023-08-21T07:44:48;101840.00;;;24.90
37536;BMP180;23379;51.554;6.736;2023-08-21T07:47:13;101820.00;;;24.60
37536;BMP180;23379;51.554;6.736;2023-08-21T07:49:39;101817.00;;;24.80
37536;BMP180;23379;51.554;6.736;2023-08-21T07:52:04;101841.00;;;24.90
37536;BMP180;23379;51.554;6.736;2023-08-21T07:54:30;101836.00;;;24.90
37536;BMP180;23379;51.554;6.736;2023-08-21T07:56:55;101842.00;;;24.80
37536;BMP180;23379;51.554;6.736;2023-08-21T07:59:21;101834.00;;;24.60
37536;BMP180;23379;51.554;6.736;2023-08-21T08:01:46;101844.00;;;24.90
37536;BMP180;23379;51.554;6.736;2023-08-21T08:04:13;101836.00;;;25.30
37536;BMP180;23379;51.554;6.736;2023-08-21T08:06:38;101835.00;;;25.60
37536;BMP180;23379;51.554;6.736;2023-08-21T08:09:03;101834.00;;;25.90
37536;BMP180;23379;51.554;6.736;2023-08-21T08:11:29;101834.00;;;26.60
37536;BMP180;23379;51.554;6.736;2023-08-21T08:13:55;101822.00;;;26.70
37536;BMP180;23379;51.554;6.736;2023-08-21T08:16:21;101834.00;;;27.30
37536;BMP180;23379;51.554;6.736;2023-08-21T08:18:46;101839.00;;;28.40
37536;BMP180;23379;51.554;6.736;2023-08-21T08:21:12;101830.00;;;28.90
37536;BMP180;23379;51.554;6.736;2023-08-21T08:23:37;101830.00;;;29.60
37536;BMP180;23379;51.554;6.736;2023-08-21T08:26:03;101832.00;;;30.20
37536;BMP180;23379;51.554;6.736;2023-08-21T08:28:28;101837.00;;;29.60
37536;BMP180;23379;51.554;6.736;2023-08-21T08:30:54;101841.00;;;30.00
37536;BMP180;23379;51.554;6.736;2023-08-21T08:33:19;101841.00;;;31.00
37536;BMP180;23379;51.554;6.736;2023-08-21T08:35:45;101850.00;;;31.40
37536;BMP180;23379;51.554;6.736;2023-08-21T08:38:11;101827.00;;;30.30
37536;BMP180;23379;51.554;6.736;2023-08-21T08:40:43;101849.00;;;30.20
37536;BMP180;23379;51.554;6.736;2023-08-21T08:43:10;101851.00;;;30.20
37536;BMP180;23379;51.554;6.736;2023-08-21T08:45:36;101853.00;;;29.40
37536;BMP180;23379;51.554;6.736;2023-08-21T08:48:03;101832.00;;;29.30
37536;BMP180;23379;51.554;6.736;2023-08-21T08:50:33;101861.00;;;29.60
37536;BMP180;23379;51.554;6.736;2023-08-21T08:52:59;101854.00;;;30.30
37536;BMP180;23379;51.554;6.736;2023-08-21T08:55:45;101848.00;;;30.40
37536;BMP180;23379;51.554;6.736;2023-08-21T08:58:11;101869.00;;;31.30
37536;BMP180;23379;51.554;6.736;2023-08-21T09:00:37;101848.00;;;31.60
37536;BMP180;23379;51.554;6.736;2023-08-21T09:03:02;101865.00;;;32.40
37536;BMP180;23379;51.554;6.736;2023-08-21T09:05:28;101861.00;;;32.40
37536;BMP180;23379;51.554;6.736;2023-08-21T09:08:10;101870.00;;;32.40
37536;BMP180;23379;51.554;6.736;2023-08-21T09:10:39;101847.00;;;32.40
37536;BMP180;23379;51.554;6.736;2023-08-21T09:13:25;101869.00;;;32.80
37536;BMP180;23379;51.554;6.736;2023-08-21T09:15:53;101854.00;;;33.00
37536;BMP180;23379;51.554;6.736;2023-08-21T09:18:19;101845.00;;;33.20
37536;BMP180;23379;51.554;6.736;2023-08-21T09:20:45;101853.00;;;33.40
37536;BMP180;23379;51.554;6.736;2023-08-21T09:23:18;101861.00;;;33.70
37536;BMP180;23379;51.554;6.736;2023-08-21T09:25:45;101851.00;;;34.00
37536;BMP180;23379;51.554;6.736;2023-08-21T09:28:14;101836.00;;;33.90
37536;BMP180;23379;51.554;6.736;2023-08-21T09:30:47;101863.00;;;33.10
37536;BMP180;23379;51.554;6.736;2023-08-21T09:33:13;101844.00;;;33.30
37536;BMP180;23379;51.554;6.736;2023-08-21T09:35:38;101860.00;;;34.20
37536;BMP180;23379;51.554;6.736;2023-08-21T09:38:07;101854.00;;;34.80
37536;BMP180;23379;51.554;6.736;2023-08-21T09:40:33;101842.00;;;34.50
37536;BMP180;23379;51.554;6.736;2023-08-21T09:42:58;101850.00;;;34.70
37536;BMP180;23379;51.554;6.736;2023-08-21T09:45:25;101849.00;;;35.60
37536;BMP180;23379;51.554;6.736;2023-08-21T09:47:52;101860.00;;;34.70
37536;BMP180;23379;51.554;6.736;2023-08-21T09:50:18;101825.00;;;34.90
37536;BMP180;23379;51.554;6.736;2023-08-21T09:52:45;101857.00;;;34.80
37536;BMP180;23379;51.554;6.736;2023-08-21T09:55:12;101851.00;;;35.40
37536;BMP180;23379;51.554;6.736;2023-08-21T09:57:39;101840.00;;;35.80
37536;BMP180;23379;51.554;6.736;2023-08-21T10:00:06;101857.00;;;35.80
37536;BMP180;23379;51.554;6.736;2023-08-21T10:02:42;101848.00;;;35.80
37536;BMP180;23379;51.554;6.736;2023-08-21T10:05:11;101834.00;;;34.60
37536;BMP180;23379;51.554;6.736;2023-08-21T10:07:38;101845.00;;;35.30
37536;BMP180;23379;51.554;6.736;2023-08-21T10:10:04;101834.00;;;35.80
37536;BMP180;23379;51.554;6.736;2023-08-21T10:12:30;101842.00;;;36.20
37536;BMP180;23379;51.554;6.736;2023-08-21T10:14:55;101850.00;;;36.80
37536;BMP180;23379;51.554;6.736;2023-08-21T10:17:21;101843.00;;;37.10
37536;BMP180;23379;51.554;6.736;2023-08-21T10:19:51;101836.00;;;36.70
37536;BMP180;23379;51.554;6.736;2023-08-21T10:22:39;101835.00;;;36.40
37536;BMP180;23379;51.554;6.736;2023-08-21T10:25:27;101816.00;;;36.50
37536;BMP180;23379;51.554;6.736;2023-08-21T10:27:55;101850.00;;;36.10
37536;BMP180;23379;51.554;6.736;2023-08-21T10:30:27;101845.00;;;36.30
37536;BMP180;23379;51.554;6.736;2023-08-21T10:32:56;101850.00;;;36.10
37536;BMP180;23379;51.554;6.736;2023-08-21T10:35:24;101842.00;;;37.20
37536;BMP180;23379;51.554;6.736;2023-08-21T10:38:11;101854.00;;;37.60
37536;BMP180;23379;51.554;6.736;2023-08-21T10:40:39;101858.00;;;36.70
37536;BMP180;23379;51.554;6.736;2023-08-21T10:43:37;101856.00;;;37.20
37536;BMP180;23379;51.554;6.736;2023-08-21T10:46:02;101848.00;;;37.70
37536;BMP180;23379;51.554;6.736;2023-08-21T10:48:27;101849.00;;;36.80
37536;BMP180;23379;51.554;6.736;2023-08-21T10:50:54;101845.00;;;37.00
37536;BMP180;23379;51.554;6.736;2023-08-21T10:53:20;101844.00;;;36.70
37536;BMP180;23379;51.554;6.736;2023-08-21T10:55:55;101833.00;;;36.40
37536;BMP180;23379;51.554;6.736;2023-08-21T10:58:20;101865.00;;;37.80
37536;BMP180;23379;51.554;6.736;2023-08-21T11:00:46;101852.00;;;37.30
37536;BMP180;23379;51.554;6.736;2023-08-21T11:03:11;101856.00;;;38.30
37536;BMP180;23379;51.554;6.736;2023-08-21T11:05:36;101809.00;;;37.40
37536;BMP180;23379;51.554;6.736;2023-08-21T11:08:02;101856.00;;;38.30
37536;BMP180;23379;51.554;6.736;2023-08-21T11:10:32;101870.00;;;38.10
37536;BMP180;23379;51.554;6.736;2023-08-21T11:12:58;101878.00;;;38.10
37536;BMP180;23379;51.554;6.736;2023-08-21T11:15:28;101861.00;;;38.60
37536;BMP180;23379;51.554;6.736;2023-08-21T11:17:54;101872.00;;;38.60
37536;BMP180;23379;51.554;6.736;2023-08-21T11:20:20;101862.00;;;38.90
37536;BMP180;23379;51.554;6.736;2023-08-21T11:22:46;101855.00;;;37.30
37536;BMP180;23379;51.554;6.736;2023-08-21T11:25:11;101853.00;;;36.00
37536;BMP180;23379;51.554;6.736;2023-08-21T11:27:37;101857.00;;;36.40
37536;BMP180;23379;51.554;6.736;2023-08-21T11:30:04;101871.00;;;36.80
37536;BMP180;23379;51.554;6.736;2023-08-21T11:32:29;101864.00;;;35.30
37536;BMP180;23379;51.554;6.736;2023-08-21T11:34:56;101871.00;;;36.90
37536;BMP180;23379;51.554;6.736;2023-08-21T11:37:26;101870.00;;;38.00
37536;BMP180;23379;51.554;6.736;2023-08-21T11:39:58;101885.00;;;37.30
37536;BMP180;23379;51.554;6.736;2023-08-21T11:42:33;101889.00;;;38.20
37536;BMP180;23379;51.554;6.736;2023-08-21T11:45:00;101880.00;;;37.10
37536;BMP180;23379;51.554;6.736;2023-08-21T11:47:34;101843.00;;;37.90
37536;BMP180;23379;51.554;6.736;2023-08-21T11:50:07;101870.00;;;38.20
37536;BMP180;23379;51.554;6.736;2023-08-21T11:52:32;101878.00;;;38.00
37536;BMP180;23379;51.554;6.736;2023-08-21T11:54:58;101846.00;;;38.20
37536;BMP180;23379;51.554;6.736;2023-08-21T11:57:24;101870.00;;;39.70
37536;BMP180;23379;51.554;6.736;2023-08-21T11:59:50;101870.00;;;39.40
37536;BMP180;23379;51.554;6.736;2023-08-21T12:02:17;101858.00;;;38.30
37536;BMP180;23379;51.554;6.736;2023-08-21T12:04:43;101864.00;;;39.60
37536;BMP180;23379;51.554;6.736;2023-08-21T12:07:09;101845.00;;;39.80
37536;BMP180;23379;51.554;6.736;2023-08-21T12:09:34;101858.00;;;40.00
37536;BMP180;23379;51.554;6.736;2023-08-21T12:12:00;101846.00;;;38.70
37536;BMP180;23379;51.554;6.736;2023-08-21T12:14:27;101858.00;;;39.00
37536;BMP180;23379;51.554;6.736;2023-08-21T12:16:53;101850.00;;;39.40
37536;BMP180;23379;51.554;6.736;2023-08-21T12:19:20;101849.00;;;40.40
37536;BMP180;23379;51.554;6.736;2023-08-21T12:21:46;101855.00;;;39.30
37536;BMP180;23379;51.554;6.736;2023-08-21T12:24:12;101824.00;;;40.10
37536;BMP180;23379;51.554;6.736;2023-08-21T12:26:37;101853.00;;;40.10
37536;BMP180;23379;51.554;6.736;2023-08-21T12:29:03;101840.00;;;39.90
37536;BMP180;23379;51.554;6.736;2023-08-21T12:31:28;101851.00;;;40.80
37536;BMP180;23379;51.554;6.736;2023-08-21T12:33:54;101855.00;;;39.50
37536;BMP180;23379;51.554;6.736;2023-08-21T12:36:19;101841.00;;;41.10
37536;BMP180;23379;51.554;6.736;2023-08-21T12:38:45;101843.00;;;40.10
37536;BMP180;23379;51.554;6.736;2023-08-21T12:41:10;101828.00;;;39.70
37536;BMP180;23379;51.554;6.736;2023-08-21T12:43:36;101851.00;;;40.40
37536;BMP180;23379;51.554;6.736;2023-08-21T12:46:01;101854.00;;;40.20
37536;BMP180;23379;51.554;6.736;2023-08-21T12:48:26;101836.00;;;40.00
37536;BMP180;23379;51.554;6.736;2023-08-21T12:50:52;101842.00;;;39.70
37536;BMP180;23379;51.554;6.736;2023-08-21T12:53:17;101845.00;;;38.80
37536;BMP180;23379;51.554;6.736;2023-08-21T12:55:43;101855.00;;;39.60
37536;BMP180;23379;51.554;6.736;2023-08-21T12:58:08;101858.00;;;40.00
37536;BMP180;23379;51.554;6.736;2023-08-21T13:00:33;101855.00;;;39.40
37536;BMP180;23379;51.554;6.736;2023-08-21T13:02:59;101855.00;;;38.80
37536;BMP180;23379;51.554;6.736;2023-08-21T13:05:25;101845.00;;;40.30
37536;BMP180;23379;51.554;6.736;2023-08-21T13:07:51;101829.00;;;39.60
37536;BMP180;23379;51.554;6.736;2023-08-21T13:10:17;101845.00;;;40.20
37536;BMP180;23379;51.554;6.736;2023-08-21T13:12:43;101845.00;;;38.30
37536;BMP180;23379;51.554;6.736;2023-08-21T13:15:09;101843.00;;;36.60
37536;BMP180;23379;51.554;6.736;2023-08-21T13:17:35;101842.00;;;38.10
37536;BMP180;23379;51.554;6.736;2023-08-21T13:20:00;101845.00;;;38.80
37536;BMP180;23379;51.554;6.736;2023-08-21T13:22:26;101841.00;;;37.90
37536;BMP180;23379;51.554;6.736;2023-08-21T13:24:51;101842.00;;;39.30
37536;BMP180;23379;51.554;6.736;2023-08-21T13:27:17;101825.00;;;39.60
37536;BMP180;23379;51.554;6.736;2023-08-21T13:29:42;101825.00;;;38.70
37536;BMP180;23379;51.554;6.736;2023-08-21T13:32:07;101846.00;;;39.80
37536;BMP180;23379;51.554;6.736;2023-08-21T13:34:33;101838.00;;;40.50
37536;BMP180;23379;51.554;6.736;2023-08-21T13:36:58;101840.00;;;40.10
37536;BMP180;23379;51.554;6.736;2023-08-21T13:39:24;101833.00;;;39.60
37536;BMP180;23379;51.554;6.736;2023-08-21T13:41:51;101840.00;;;38.50
37536;BMP180;23379;51.554;6.736;2023-08-21T13:44:17;101827.00;;;35.20
37536;BMP180;23379;51.554;6.736;2023-08-21T13:46:42;101820.00;;;36.50
37536;BMP180;23379;51.554;6.736;2023-08-21T13:49:08;101831.00;;;36.00
37536;BMP180;23379;51.554;6.736;2023-08-21T13:51:34;101830.00;;;36.00
37536;BMP180;23379;51.554;6.736;2023-08-21T13:54:00;101834.00;;;34.50
37536;BMP180;23379;51.554;6.736;2023-08-21T13:56:25;101829.00;;;33.70